createdAt,value
2018-12-30T00:00:08.333Z,100151.73
2018-12-30T00:02:41.268Z,100148.30
2018-12-30T00:05:13.242Z,100143.78
2018-12-30T00:07:44.700Z,100155.92
2018-12-30T00:10:16.502Z,100153.39
2018-12-30T00:12:47.882Z,100158.51
2018-12-30T00:15:19.962Z,100162.83
2018-12-30T00:17:51.771Z,100168.77
2018-12-30T00:20:23.346Z,100168.77
2018-12-30T00:22:54.714Z,100175.16
2018-12-30T00:25:26.131Z,100175.16
2018-12-30T00:27:57.786Z,100185.49
2018-12-30T00:30:29.570Z,100185.49
2018-12-30T00:33:01.049Z,100188.83
2018-12-30T00:35:32.521Z,100194.00
2018-12-30T00:38:03.924Z,100203.97
2018-12-30T00:40:35.225Z,100209.72
2018-12-30T00:43:06.622Z,100210.98
2018-12-30T00:45:38.122Z,100208.41
2018-12-30T00:48:09.937Z,100199.80
2018-12-30T00:50:41.659Z,100199.80
2018-12-30T00:53:13.057Z,100196.98
2018-12-30T00:55:44.287Z,100196.98
2018-12-30T00:58:15.745Z,100205.30
2018-12-30T01:00:47.585Z,100213.84
2018-12-30T01:03:19.230Z,100226.76
2018-12-30T01:05:51.822Z,100225.09
2018-12-30T01:08:23.380Z,100225.09
2018-12-30T01:10:54.709Z,100241.88
2018-12-30T01:13:26.832Z,100250.16
2018-12-30T01:15:58.169Z,100253.13
2018-12-30T01:18:30.127Z,100260.41
2018-12-30T01:21:01.535Z,100263.89
2018-12-30T01:23:33.284Z,100255.75
2018-12-30T01:26:04.740Z,100255.75
2018-12-30T01:28:36.173Z,100270.98
2018-12-30T01:31:07.513Z,100270.98
2018-12-30T01:33:39.247Z,100271.27
2018-12-30T01:36:10.965Z,100270.17
2018-12-30T01:38:42.430Z,100273.55
2018-12-30T01:41:13.790Z,100270.87
2018-12-30T01:43:44.896Z,100263.04
2018-12-30T01:46:16.538Z,100263.04
2018-12-30T01:48:48.290Z,100288.53
2018-12-30T01:51:20.012Z,100291.56
2018-12-30T01:53:51.712Z,100301.05
2018-12-30T01:56:23.433Z,100301.05
2018-12-30T01:58:55.170Z,100301.91
2018-12-30T02:01:26.434Z,100301.37
2018-12-30T02:03:57.745Z,100301.37
2018-12-30T02:06:29.342Z,100309.97
2018-12-30T02:09:01.217Z,100315.20
2018-12-30T02:11:34.096Z,100315.20
2018-12-30T02:14:05.583Z,100330.69
2018-12-30T02:16:37.046Z,100331.55
2018-12-30T02:19:09.405Z,100337.59
2018-12-30T02:21:41.134Z,100340.95
2018-12-30T02:24:12.808Z,100345.37
2018-12-30T02:26:44.214Z,100351.78
2018-12-30T02:29:15.801Z,100361.28
2018-12-30T02:31:47.207Z,100364.72
2018-12-30T02:34:22.222Z,100363.84
2018-12-30T02:36:53.724Z,100363.84
2018-12-30T02:39:24.923Z,100364.62
2018-12-30T02:41:56.758Z,100362.37
2018-12-30T02:44:28.387Z,100362.02
2018-12-30T02:47:00.578Z,100367.22
2018-12-30T02:49:32.422Z,100367.22
2018-12-30T02:52:03.955Z,100374.53
2018-12-30T02:54:35.560Z,100383.53
2018-12-30T02:57:07.185Z,100375.66
2018-12-30T02:59:38.630Z,100379.11
2018-12-30T03:02:10.301Z,100389.56
2018-12-30T03:04:41.612Z,100389.56
2018-12-30T03:07:15.541Z,100397.77
2018-12-30T03:09:47.266Z,100406.77
2018-12-30T03:12:18.596Z,100406.77
2018-12-30T03:14:49.822Z,100405.38
2018-12-30T03:17:21.455Z,100405.38
2018-12-30T03:19:53.101Z,100418.00
2018-12-30T03:22:24.640Z,100424.93
2018-12-30T03:24:56.112Z,100424.93
2018-12-30T03:27:27.893Z,100445.69
2018-12-30T03:29:59.244Z,100447.00
2018-12-30T03:32:31.080Z,100460.40
2018-12-30T03:35:02.677Z,100459.88
2018-12-30T03:37:33.962Z,100459.88
2018-12-30T03:40:06.162Z,100460.23
2018-12-30T03:42:37.473Z,100460.23
2018-12-30T03:45:11.977Z,100468.08
2018-12-30T03:47:43.767Z,100466.35
2018-12-30T03:50:16.488Z,100482.70
2018-12-30T03:52:47.907Z,100482.70
2018-12-30T03:55:19.217Z,100486.58
2018-12-30T03:57:50.854Z,100489.11
2018-12-30T04:00:22.018Z,100486.45
2018-12-30T04:02:53.619Z,100486.45
2018-12-30T04:05:24.968Z,100502.92
2018-12-30T04:07:56.652Z,100491.16
2018-12-30T04:10:28.110Z,100495.90
2018-12-30T04:12:59.842Z,100495.90
2018-12-30T04:15:31.198Z,100500.15
2018-12-30T04:18:02.751Z,100497.95
2018-12-30T04:20:34.423Z,100490.95
2018-12-30T04:23:05.700Z,100490.95
2018-12-30T04:25:37.437Z,100501.31
2018-12-30T04:28:11.948Z,100500.53
2018-12-30T04:30:43.326Z,100500.36
2018-12-30T04:33:14.899Z,100500.36
2018-12-30T04:35:46.569Z,100496.89
2018-12-30T04:38:18.136Z,100502.58
2018-12-30T04:40:49.545Z,100508.09
2018-12-30T04:43:20.995Z,100508.09
2018-12-30T04:45:52.436Z,100493.42
2018-12-30T04:48:24.263Z,100493.42
2018-12-30T04:50:56.180Z,100496.32
2018-12-30T04:53:27.488Z,100495.30
2018-12-30T04:55:58.890Z,100487.06
2018-12-30T04:58:30.629Z,100484.97
2018-12-30T05:01:02.360Z,100483.63
2018-12-30T05:03:33.864Z,100483.63
2018-12-30T05:06:05.111Z,100492.27
2018-12-30T05:08:36.517Z,100484.89
2018-12-30T05:11:07.819Z,100484.89
2018-12-30T05:13:39.010Z,100475.16
2018-12-30T05:16:10.823Z,100468.66
2018-12-30T05:18:42.360Z,100468.66
2018-12-30T05:21:14.356Z,100458.69
2018-12-30T05:23:45.877Z,100454.72
2018-12-30T05:26:17.087Z,100454.72
2018-12-30T05:28:48.524Z,100445.74
2018-12-30T05:31:20.468Z,100445.84
2018-12-30T05:33:52.007Z,100438.92
2018-12-30T05:36:23.652Z,100438.92
2018-12-30T05:38:55.154Z,100437.65
2018-12-30T05:41:26.397Z,100434.39
2018-12-30T05:43:57.837Z,100433.53
2018-12-30T05:46:28.924Z,100432.89
2018-12-30T05:49:00.409Z,100432.89
2018-12-30T05:51:32.194Z,100427.95
2018-12-30T05:54:03.816Z,100412.27
2018-12-30T05:56:35.106Z,100412.27
2018-12-30T05:59:06.565Z,100405.11
2018-12-30T06:01:37.710Z,100401.73
2018-12-30T06:04:09.582Z,100399.13
2018-12-30T06:06:41.224Z,100398.23
2018-12-30T06:09:12.532Z,100395.20
2018-12-30T06:11:43.730Z,100391.45
2018-12-30T06:14:15.026Z,100386.00
2018-12-30T06:16:46.684Z,100373.02
2018-12-30T06:19:18.227Z,100373.02
2018-12-30T06:21:49.932Z,100369.52
2018-12-30T06:24:22.190Z,100356.98
2018-12-30T06:26:53.615Z,100356.98
2018-12-30T06:29:25.033Z,100347.42
2018-12-30T06:31:56.569Z,100338.72
2018-12-30T06:34:28.063Z,100326.57
2018-12-30T06:36:59.430Z,100327.22
2018-12-30T06:39:30.929Z,100327.22
2018-12-30T06:42:02.361Z,100328.15
2018-12-30T06:44:33.967Z,100320.41
2018-12-30T06:47:05.573Z,100320.56
2018-12-30T06:49:36.910Z,100320.56
2018-12-30T06:52:08.697Z,100312.45
2018-12-30T06:54:40.459Z,100310.12
2018-12-30T06:57:11.832Z,100304.45
2018-12-30T06:59:43.030Z,100300.20
2018-12-30T07:02:14.546Z,100286.86
2018-12-30T07:04:45.967Z,100278.27
2018-12-30T07:07:17.177Z,100278.27
2018-12-30T07:09:48.507Z,100284.33
2018-12-30T07:12:20.039Z,100279.02
2018-12-30T07:14:51.635Z,100279.02
2018-12-30T07:17:22.885Z,100277.31
2018-12-30T07:19:54.288Z,100277.31
2018-12-30T07:22:25.951Z,100276.05
2018-12-30T07:24:57.299Z,100276.05
2018-12-30T07:27:28.876Z,100273.12
2018-12-30T07:30:00.624Z,100266.77
2018-12-30T07:32:31.894Z,100266.77
2018-12-30T07:35:03.513Z,100270.27
2018-12-30T07:37:35.042Z,100257.14
2018-12-30T07:40:06.669Z,100257.14
2018-12-30T07:42:38.155Z,100256.03
2018-12-30T07:45:09.845Z,100249.19
2018-12-30T07:47:41.034Z,100249.19
2018-12-30T07:50:12.261Z,100244.66
2018-12-30T07:52:44.291Z,100244.66
2018-12-30T07:55:17.310Z,100239.91
2018-12-30T07:57:48.750Z,100239.91
2018-12-30T08:00:20.146Z,100232.73
2018-12-30T08:02:52.544Z,100224.90
2018-12-30T08:05:24.344Z,100215.41
2018-12-30T08:07:55.974Z,100215.41
2018-12-30T08:10:27.830Z,100216.65
2018-12-30T08:12:59.373Z,100227.72
2018-12-30T08:15:30.810Z,100219.95
2018-12-30T08:18:02.239Z,100219.84
2018-12-30T08:20:33.577Z,100219.84
2018-12-30T08:23:05.491Z,100207.30
2018-12-30T08:25:37.117Z,100219.33
2018-12-30T08:28:09.084Z,100216.72
2018-12-30T08:30:40.456Z,100208.38
2018-12-30T08:33:12.063Z,100206.55
2018-12-30T08:35:43.613Z,100199.70
2018-12-30T08:38:15.029Z,100199.70
2018-12-30T08:40:46.678Z,100201.22
2018-12-30T08:43:18.310Z,100202.61
2018-12-30T08:45:49.686Z,100202.61
2018-12-30T08:48:21.390Z,100196.73
2018-12-30T08:50:53.007Z,100203.20
2018-12-30T08:53:29.316Z,100204.43
2018-12-30T08:55:57.937Z,100193.88
2018-12-30T08:58:29.185Z,100197.34
2018-12-30T09:01:00.504Z,100197.34
2018-12-30T09:03:32.249Z,100198.72
2018-12-30T09:06:03.613Z,100198.72
2018-12-30T09:08:34.757Z,100198.28
2018-12-30T09:14:05.274Z,100188.00
2018-12-30T09:16:36.731Z,100188.00
2018-12-30T09:19:08.303Z,100193.22
2018-12-30T09:21:39.848Z,100185.00
2018-12-30T09:24:11.513Z,100190.28
2018-12-30T09:26:42.966Z,100190.88
2018-12-30T09:29:14.800Z,100192.87
2018-12-30T09:31:46.309Z,100192.87
2018-12-30T09:34:17.499Z,100186.75
2018-12-30T09:36:49.033Z,100188.41
2018-12-30T09:39:20.216Z,100184.42
2018-12-30T09:41:51.848Z,100185.66
2018-12-30T09:44:23.096Z,100179.00
2018-12-30T09:46:54.678Z,100183.70
2018-12-30T09:49:26.043Z,100182.09
2018-12-30T09:51:58.749Z,100184.05
2018-12-30T09:54:31.274Z,100186.44
2018-12-30T09:57:03.411Z,100180.54
2018-12-30T09:59:34.754Z,100180.54
2018-12-30T10:02:06.169Z,100179.64
2018-12-30T10:04:37.359Z,100179.64
2018-12-30T10:07:08.603Z,100184.46
2018-12-30T10:09:39.925Z,100187.09
2018-12-30T10:12:11.708Z,100187.09
2018-12-30T10:14:42.779Z,100182.50
2018-12-30T10:17:14.278Z,100182.14
2018-12-30T10:19:45.439Z,100182.14
2018-12-30T10:22:17.305Z,100181.09
2018-12-30T10:24:49.360Z,100186.09
2018-12-30T10:27:20.881Z,100182.64
2018-12-30T10:29:52.087Z,100182.64
2018-12-30T10:32:23.719Z,100184.90
2018-12-30T10:34:55.073Z,100182.71
2018-12-30T10:37:26.493Z,100193.03
2018-12-30T10:39:57.910Z,100189.72
2018-12-30T10:42:29.480Z,100189.07
2018-12-30T10:45:01.170Z,100187.61
2018-12-30T10:47:33.956Z,100187.61
2018-12-30T10:50:05.399Z,100181.03
2018-12-30T10:52:36.808Z,100184.02
2018-12-30T10:55:09.066Z,100190.70
2018-12-30T10:57:40.962Z,100190.70
2018-12-30T11:00:12.224Z,100201.44
2018-12-30T11:02:43.573Z,100205.34
2018-12-30T11:05:14.658Z,100198.83
2018-12-30T11:07:46.161Z,100192.13
2018-12-30T11:10:17.521Z,100192.13
2018-12-30T11:12:48.905Z,100206.86
2018-12-30T11:15:20.181Z,100207.51
2018-12-30T11:17:51.571Z,100210.68
2018-12-30T11:20:23.026Z,100206.73
2018-12-30T11:22:54.359Z,100206.73
2018-12-30T11:25:26.224Z,100212.80
2018-12-30T11:27:57.563Z,100213.58
2018-12-30T11:30:28.853Z,100208.93
2018-12-30T11:33:00.403Z,100208.93
2018-12-30T11:35:31.855Z,100219.98
2018-12-30T11:38:03.179Z,100219.98
2018-12-30T11:40:34.657Z,100219.38
2018-12-30T11:43:05.947Z,100219.38
2018-12-30T11:45:37.310Z,100217.63
2018-12-30T11:48:08.822Z,100219.00
2018-12-30T11:50:40.490Z,100217.70
2018-12-30T11:53:12.093Z,100219.45
2018-12-30T11:55:43.910Z,100218.27
2018-12-30T11:58:15.758Z,100223.85
2018-12-30T12:00:47.137Z,100215.66
2018-12-30T12:03:18.663Z,100218.68
2018-12-30T12:05:50.459Z,100218.68
2018-12-30T12:08:22.109Z,100221.66
2018-12-30T12:10:53.346Z,100222.18
2018-12-30T12:13:24.727Z,100224.78
2018-12-30T12:15:56.247Z,100224.00
2018-12-30T12:18:27.811Z,100224.00
2018-12-30T12:20:59.212Z,100220.43
2018-12-30T12:23:30.753Z,100218.72
2018-12-30T12:26:02.726Z,100227.84
2018-12-30T12:28:35.821Z,100214.22
2018-12-30T12:31:07.094Z,100225.68
2018-12-30T12:33:38.584Z,100224.78
2018-12-30T12:36:09.767Z,100228.41
2018-12-30T12:38:41.416Z,100228.41
2018-12-30T12:41:12.699Z,100235.19
2018-12-30T12:43:44.192Z,100233.50
2018-12-30T12:46:15.391Z,100233.50
2018-12-30T12:48:46.873Z,100237.74
2018-12-30T12:51:18.360Z,100234.10
2018-12-30T12:53:49.696Z,100241.36
2018-12-30T12:56:21.395Z,100245.13
2018-12-30T12:58:52.572Z,100247.59
2018-12-30T13:01:23.749Z,100247.59
2018-12-30T13:03:55.292Z,100244.08
2018-12-30T13:06:27.421Z,100251.38
2018-12-30T13:09:01.018Z,100256.08
2018-12-30T13:11:33.704Z,100256.89
2018-12-30T13:14:05.610Z,100256.89
2018-12-30T13:16:37.306Z,100256.04
2018-12-30T13:19:09.269Z,100256.81
2018-12-30T13:21:40.904Z,100259.12
2018-12-30T13:24:12.344Z,100270.59
2018-12-30T13:26:44.327Z,100267.46
2018-12-30T13:29:16.143Z,100268.31
2018-12-30T13:31:47.698Z,100268.31
2018-12-30T13:34:19.504Z,100269.03
2018-12-30T13:36:52.497Z,100271.23
2018-12-30T13:39:25.492Z,100278.41
2018-12-30T13:41:57.353Z,100278.41
2018-12-30T13:44:29.294Z,100278.81
2018-12-30T13:47:01.954Z,100277.20
2018-12-30T13:49:34.656Z,100282.62
2018-12-30T13:52:06.086Z,100282.62
2018-12-30T13:54:37.625Z,100285.50
2018-12-30T13:57:09.879Z,100286.50
2018-12-30T13:59:44.978Z,100284.69
2018-12-30T14:02:16.450Z,100284.69
2018-12-30T14:04:47.640Z,100293.39
2018-12-30T14:07:19.468Z,100293.39
2018-12-30T14:09:50.742Z,100293.39
2018-12-30T14:12:22.038Z,100293.36
2018-12-30T14:14:53.481Z,100293.36
2018-12-30T14:17:24.860Z,100299.29
2018-12-30T14:19:56.422Z,100300.22
2018-12-30T14:22:28.150Z,100300.22
2018-12-30T14:24:59.808Z,100297.71
2018-12-30T14:27:31.830Z,100297.71
2018-12-30T14:30:03.537Z,100304.43
2018-12-30T14:32:36.300Z,100304.43
2018-12-30T14:35:07.920Z,100311.66
2018-12-30T14:37:40.642Z,100315.39
2018-12-30T14:40:12.404Z,100315.39
2018-12-30T14:42:44.357Z,100315.52
2018-12-30T14:45:16.001Z,100317.68
2018-12-30T14:47:47.771Z,100317.68
2018-12-30T14:50:19.507Z,100320.12
2018-12-30T14:52:52.054Z,100314.91
2018-12-30T14:55:23.685Z,100314.91
2018-12-30T14:57:56.015Z,100324.75
2018-12-30T15:00:27.723Z,100320.53
2018-12-30T15:03:02.752Z,100320.56
2018-12-30T15:05:34.403Z,100323.81
2018-12-30T15:08:06.191Z,100323.81
2018-12-30T15:10:38.547Z,100318.80
2018-12-30T15:13:10.146Z,100322.67
2018-12-30T15:15:45.629Z,100318.98
2018-12-30T15:18:17.208Z,100316.13
2018-12-30T15:20:48.466Z,100316.13
2018-12-30T15:23:19.685Z,100316.77
2018-12-30T15:25:51.016Z,100316.77
2018-12-30T15:28:22.924Z,100316.29
2018-12-30T15:30:54.862Z,100311.80
2018-12-30T15:33:26.810Z,100311.80
2018-12-30T15:35:58.459Z,100312.72
2018-12-30T15:38:30.204Z,100312.72
2018-12-30T15:41:01.730Z,100311.80
2018-12-30T15:43:33.224Z,100310.02
2018-12-30T15:46:04.774Z,100314.33
2018-12-30T15:48:36.219Z,100319.26
2018-12-30T15:51:08.003Z,100317.32
2018-12-30T15:53:39.714Z,100317.32
2018-12-30T15:56:11.314Z,100318.70
2018-12-30T15:58:43.710Z,100320.68
2018-12-30T16:01:15.629Z,100320.68
2018-12-30T16:03:47.551Z,100325.59
2018-12-30T16:06:19.015Z,100322.58
2018-12-30T16:08:50.697Z,100316.20
2018-12-30T17:02:27.942Z,100298.60
2018-12-30T17:05:00.282Z,100290.99
2018-12-30T17:07:32.136Z,100288.02
2018-12-30T17:10:03.425Z,100292.27
2018-12-30T17:12:35.047Z,100292.27
2018-12-30T17:15:07.082Z,100291.35
2018-12-30T17:17:39.080Z,100282.33
2018-12-30T17:20:10.606Z,100292.38
2018-12-30T17:22:42.203Z,100292.38
2018-12-30T17:25:13.730Z,100293.20
2018-12-30T17:27:45.160Z,100299.17
2018-12-30T17:30:16.644Z,100302.99
2018-12-30T17:32:48.000Z,100302.99
2018-12-30T17:35:20.096Z,100298.22
2018-12-30T17:37:51.523Z,100298.56
2018-12-30T17:40:22.648Z,100289.56
2018-12-30T17:42:54.341Z,100293.03
2018-12-30T17:45:25.820Z,100293.03
2018-12-30T17:47:57.553Z,100294.41
2018-12-30T17:50:28.885Z,100289.59
2018-12-30T17:53:00.808Z,100285.32
2018-12-30T17:55:32.438Z,100280.95
2018-12-30T17:58:03.936Z,100280.95
2018-12-30T18:00:36.295Z,100281.06
2018-12-30T18:03:08.157Z,100279.41
2018-12-30T18:05:40.093Z,100274.22
2018-12-30T18:08:11.737Z,100271.23
2018-12-30T18:10:44.334Z,100268.30
2018-12-30T18:13:15.844Z,100276.08
2018-12-30T18:15:48.282Z,100276.08
2018-12-30T18:18:20.665Z,100268.78
2018-12-30T18:20:51.970Z,100268.78
2018-12-30T18:23:23.542Z,100257.53
2018-12-30T18:25:58.737Z,100258.39
2018-12-30T18:28:28.452Z,100258.50
2018-12-30T18:31:00.170Z,100259.36
2018-12-30T18:33:31.957Z,100257.77
2018-12-30T18:36:04.021Z,100258.94
2018-12-30T18:38:35.485Z,100250.70
2018-12-30T18:41:06.985Z,100248.13
2018-12-30T18:43:38.399Z,100248.13
2018-12-30T18:46:09.844Z,100254.72
2018-12-30T18:48:41.531Z,100242.70
2018-12-30T18:51:12.883Z,100242.70
2018-12-30T18:53:44.323Z,100249.08
2018-12-30T18:56:15.774Z,100249.08
2018-12-30T18:58:47.386Z,100253.44
2018-12-30T19:01:18.759Z,100248.39
2018-12-30T19:03:50.325Z,100243.63
2018-12-30T19:06:22.432Z,100240.24
2018-12-30T19:08:54.333Z,100242.39
2018-12-30T19:11:25.671Z,100237.25
2018-12-30T19:13:57.417Z,100237.25
2018-12-30T19:16:29.037Z,100236.41
2018-12-30T19:19:00.763Z,100244.30
2018-12-30T19:21:32.240Z,100233.11
2018-12-30T19:24:03.921Z,100232.30
2018-12-30T19:26:35.504Z,100235.48
2018-12-30T19:29:07.036Z,100231.94
2018-12-30T19:31:38.207Z,100231.94
2018-12-30T19:34:09.821Z,100236.69
2018-12-30T19:36:41.871Z,100226.34
2018-12-30T19:39:13.182Z,100226.34
2018-12-30T19:41:44.500Z,100225.02
2018-12-30T19:44:15.819Z,100220.30
2018-12-30T19:49:17.540Z,100222.58
2018-12-30T19:51:48.957Z,100217.79
2018-12-30T19:54:20.596Z,100217.79
2018-12-30T19:56:52.965Z,100216.56
2018-12-30T19:59:24.729Z,100204.95
2018-12-30T20:01:56.276Z,100204.95
2018-12-30T20:04:27.605Z,100215.52
2018-12-30T20:06:59.672Z,100208.45
2018-12-30T20:09:31.329Z,100212.52
2018-12-30T20:12:02.761Z,100212.52
2018-12-30T20:14:34.749Z,100211.56
2018-12-30T20:17:06.240Z,100207.67
2018-12-30T20:19:37.496Z,100207.67
2018-12-30T20:22:09.551Z,100201.09
2018-12-30T20:24:40.929Z,100201.09
2018-12-30T20:27:12.448Z,100200.74
2018-12-30T20:29:44.066Z,100200.00
2018-12-30T20:32:15.520Z,100200.42
2018-12-30T20:34:46.820Z,100200.42
2018-12-30T20:37:19.118Z,100199.65
2018-12-30T20:39:50.787Z,100203.77
2018-12-30T20:42:22.349Z,100203.77
2018-12-30T20:44:53.668Z,100191.15
2018-12-30T20:47:25.057Z,100184.69
2018-12-30T20:49:56.572Z,100184.69
2018-12-30T20:52:27.979Z,100185.63
2018-12-30T20:54:59.683Z,100185.63
2018-12-30T20:57:31.045Z,100186.16
2018-12-30T21:00:02.618Z,100183.41
2018-12-30T21:02:34.187Z,100183.41
2018-12-30T21:05:05.976Z,100181.20
2018-12-30T21:07:37.673Z,100181.20
2018-12-30T21:10:09.430Z,100185.30
2018-12-30T21:12:40.866Z,100183.06
2018-12-30T21:15:12.304Z,100183.06
2018-12-30T21:17:43.950Z,100177.84
2018-12-30T21:20:16.164Z,100177.84
2018-12-30T21:22:47.575Z,100177.35
2018-12-30T21:25:19.631Z,100174.88
2018-12-30T21:27:51.278Z,100188.58
2018-12-30T21:30:22.857Z,100188.58
2018-12-30T21:32:54.366Z,100187.66
2018-12-30T21:35:25.819Z,100201.50
2018-12-30T21:37:57.616Z,100201.50
2018-12-30T21:40:28.969Z,100199.80
2018-12-30T21:43:00.478Z,100199.80
2018-12-30T21:45:32.737Z,100193.17
2018-12-30T21:48:04.391Z,100193.56
2018-12-30T21:50:36.025Z,100195.79
2018-12-30T21:53:07.558Z,100188.95
2018-12-30T21:55:39.069Z,100191.23
2018-12-30T21:58:10.346Z,100187.80
2018-12-30T22:00:41.689Z,100181.68
2018-12-30T22:03:13.269Z,100186.20
2018-12-30T22:05:44.719Z,100181.89
2018-12-30T22:08:16.815Z,100179.63
2018-12-30T22:10:48.261Z,100179.63
2018-12-30T22:13:19.985Z,100176.21
2018-12-30T22:15:51.385Z,100180.19
2018-12-30T22:18:22.786Z,100178.81
2018-12-30T22:20:53.991Z,100178.81
2018-12-30T22:23:25.493Z,100170.98
2018-12-30T22:25:57.488Z,100165.44
2018-12-30T22:28:29.252Z,100165.44
2018-12-30T22:31:01.178Z,100162.06
2018-12-30T22:33:32.474Z,100162.06
2018-12-30T22:36:03.772Z,100165.94
2018-12-30T22:38:35.831Z,100162.16
2018-12-30T22:41:07.549Z,100162.16
2018-12-30T22:43:39.229Z,100155.45
2018-12-30T22:46:10.689Z,100164.59
2018-12-30T22:48:42.368Z,100164.33
2018-12-30T22:51:13.962Z,100164.33
2018-12-30T22:53:45.601Z,100160.91
2018-12-30T22:56:17.243Z,100157.45
2018-12-30T22:58:49.238Z,100159.63
2018-12-30T23:01:25.403Z,100159.60
2018-12-30T23:03:56.802Z,100164.80
2018-12-30T23:06:29.132Z,100161.34
2018-12-30T23:09:01.333Z,100160.55
2018-12-30T23:11:34.193Z,100162.61
2018-12-30T23:14:05.398Z,100153.99
2018-12-30T23:16:36.696Z,100157.00
2018-12-30T23:19:08.309Z,100157.00
2018-12-30T23:21:39.612Z,100161.91
2018-12-30T23:24:10.969Z,100167.39
2018-12-30T23:26:43.235Z,100160.99
2018-12-30T23:29:14.854Z,100178.80
2018-12-30T23:31:46.077Z,100178.80
2018-12-30T23:34:17.653Z,100164.58
2018-12-30T23:36:49.287Z,100171.47
2018-12-30T23:39:21.290Z,100171.47
2018-12-30T23:41:52.949Z,100171.05
2018-12-30T23:44:24.608Z,100172.80
2018-12-30T23:46:56.538Z,100179.74
2018-12-30T23:49:27.913Z,100180.61
2018-12-30T23:51:59.541Z,100183.56
2018-12-30T23:54:30.760Z,100186.94
2018-12-30T23:57:02.424Z,100186.94
2018-12-30T23:59:33.768Z,100188.59
